Time;durP1;ratioP1;P1;durP2;ratioP2;P2;SDS_P1;SDS_P2;PMS_P1;PMS_P2;Temp;Humidity;BMP_temperature;BMP_pressure;BME280_temperature;BME280_humidity;BME280_pressure;Samples;Min_cycle;Max_cycle;Signal;HPM_P1;HPM_P2
2023/10/06 00:01:47;;;;;;;7.15;3.38;;;20.30;95.00;;;;;;4970522;28;20050;-67
2023/10/06 00:04:15;;;;;;;5.75;2.95;;;20.40;96.20;;;;;;4991304;28;20054;-65
2023/10/06 00:06:41;;;;;;;7.78;3.20;;;20.50;96.20;;;;;;4990922;28;20444;-66
2023/10/06 00:09:09;;;;;;;7.95;3.55;;;20.50;95.10;;;;;;4956696;28;20397;-67
2023/10/06 00:11:37;;;;;;;6.68;3.08;;;;;;;;;;4964752;28;20125;-67
2023/10/06 00:14:07;;;;;;;6.20;2.55;;;20.40;96.20;;;;;;4973626;28;20082;-66
2023/10/06 00:16:39;;;;;;;7.03;2.80;;;20.50;96.20;;;;;;4991476;28;20056;-66
2023/10/06 00:19:27;;;;;;;6.43;2.47;;;20.50;96.20;;;;;;4990157;28;20671;-66
2023/10/06 00:24:41;;;;;;;7.40;3.30;;;;;;;;;;4971738;28;20050;-67
2023/10/06 00:27:11;;;;;;;6.28;2.75;;;;;;;;;;4990722;28;20057;-67
2023/10/06 00:29:38;;;;;;;6.22;2.67;;;20.60;95.00;;;;;;4974943;28;20054;-67
2023/10/06 00:32:21;;;;;;;6.03;2.50;;;20.50;96.10;;;;;;4975426;28;20078;-67
2023/10/06 00:34:52;;;;;;;6.35;3.17;;;20.30;94.90;;;;;;4978300;28;20062;-66
2023/10/06 00:37:24;;;;;;;6.13;2.60;;;;;;;;;;4992103;28;20100;-66
2023/10/06 00:39:52;;;;;;;7.55;2.70;;;20.50;96.00;;;;;;4992564;28;20449;-66
2023/10/06 00:42:19;;;;;;;6.05;2.97;;;20.40;96.00;;;;;;4976838;28;20484;-66
2023/10/06 00:44:46;;;;;;;6.18;2.63;;;20.40;95.90;;;;;;4976368;28;20077;-65
2023/10/06 00:47:13;;;;;;;5.85;2.88;;;20.30;94.60;;;;;;4995750;28;20563;-66
2023/10/06 00:49:39;;;;;;;7.38;2.88;;;20.40;95.90;;;;;;4994223;28;20061;-66
2023/10/06 00:52:06;;;;;;;7.65;2.72;;;;;;;;;;4988645;28;20493;-66
2023/10/06 00:54:33;;;;;;;6.13;2.45;;;20.40;95.90;;;;;;4994666;28;20050;-66
2023/10/06 00:57:08;;;;;;;7.25;2.70;;;;;;;;;;4978452;28;20042;-65
2023/10/06 00:59:36;;;;;;;5.90;2.85;;;;;;;;;;4992683;28;20197;-66
2023/10/06 01:02:02;;;;;;;6.13;2.53;;;20.40;94.30;;;;;;4992761;28;20500;-65
2023/10/06 01:04:34;;;;;;;7.10;2.97;;;;;;;;;;4991602;28;20046;-66
2023/10/06 01:07:00;;;;;;;6.07;2.50;;;20.50;95.80;;;;;;4994058;28;20512;-67
2023/10/06 01:09:35;;;;;;;6.68;2.83;;;20.40;95.80;;;;;;4993671;28;20450;-66
2023/10/06 01:12:05;;;;;;;5.97;2.58;;;20.50;95.80;;;;;;4992887;28;20069;-66
2023/10/06 01:14:34;;;;;;;5.43;2.42;;;20.40;95.80;;;;;;4991069;28;20511;-66
2023/10/06 01:19:35;;;;;;;7.32;2.72;;;20.50;95.80;;;;;;4994502;28;20046;-65
2023/10/06 01:24:46;;;;;;;7.10;2.60;;;20.40;95.70;;;;;;4991573;28;20489;-65
2023/10/06 01:27:12;;;;;;;7.72;2.92;;;20.40;95.80;;;;;;4976533;28;20152;-65
2023/10/06 01:29:38;;;;;;;7.47;2.55;;;20.40;95.70;;;;;;4978315;28;20137;-66
2023/10/06 01:32:05;;;;;;;8.13;3.05;;;20.40;94.30;;;;;;4985972;28;20054;-66
2023/10/06 01:34:37;;;;;;;6.65;2.72;;;20.30;95.70;;;;;;4993759;28;20057;-65
2023/10/06 01:37:04;;;;;;;6.15;2.92;;;20.40;95.70;;;;;;4989040;28;20058;-66
2023/10/06 01:39:35;;;;;;;6.40;2.75;;;20.50;95.70;;;;;;4991826;28;20038;-67
2023/10/06 01:42:04;;;;;;;7.05;2.80;;;20.30;95.60;;;;;;4989559;28;20050;-66
2023/10/06 01:44:30;;;;;;;7.63;2.80;;;20.30;95.60;;;;;;4992598;28;20046;-66
2023/10/06 01:46:57;;;;;;;7.00;3.10;;;20.40;95.60;;;;;;4994071;28;20394;-67
2023/10/06 01:49:23;;;;;;;7.80;3.00;;;;;;;;;;4968814;28;20515;-66
2023/10/06 01:51:52;;;;;;;5.95;3.05;;;20.20;95.60;;;;;;4984256;28;20090;-67
2023/10/06 01:54:19;;;;;;;6.57;2.90;;;20.30;94.30;;;;;;4975464;28;20050;-67
2023/10/06 01:56:46;;;;;;;5.88;2.85;;;;;;;;;;4972182;28;20055;-66
2023/10/06 01:59:14;;;;;;;6.85;3.00;;;;;;;;;;4989920;28;20190;-65
2023/10/06 02:01:41;;;;;;;8.05;3.10;;;20.40;95.70;;;;;;4959710;28;20378;-66
2023/10/06 02:04:22;;;;;;;6.57;2.80;;;20.40;94.40;;;;;;4959777;28;20112;-66
2023/10/06 02:06:48;;;;;;;6.43;2.83;;;;;;;;;;4967783;28;20090;-67
2023/10/06 02:09:15;;;;;;;6.75;2.80;;;;;;;;;;4971946;28;20104;-67
2023/10/06 02:11:45;;;;;;;7.20;3.03;;;20.40;94.40;;;;;;4976527;28;20057;-66
2023/10/06 02:14:19;;;;;;;6.80;3.10;;;20.30;94.40;;;;;;4974896;28;20057;-66
2023/10/06 02:16:45;;;;;;;6.50;3.15;;;20.50;95.60;;;;;;4978542;28;20392;-66
2023/10/06 02:19:12;;;;;;;6.75;3.00;;;;;;;;;;4976520;28;20054;-66
2023/10/06 02:21:45;;;;;;;7.95;2.97;;;20.20;95.60;;;;;;4957473;28;20042;-67
2023/10/06 02:24:12;;;;;;;6.47;3.35;;;20.30;95.50;;;;;;5001947;28;20448;-66
2023/10/06 02:26:38;;;;;;;7.25;3.08;;;;;;;;;;4990806;28;20461;-67
2023/10/06 02:29:22;;;;;;;7.05;3.20;;;20.30;95.50;;;;;;4976868;28;20046;-67
2023/10/06 02:31:52;;;;;;;8.73;3.50;;;20.30;94.40;;;;;;4989393;28;20046;-67
2023/10/06 02:34:29;;;;;;;8.68;3.15;;;20.30;95.50;;;;;;4989467;28;20030;-67
2023/10/06 02:37:00;;;;;;;8.70;3.28;;;20.50;93.70;;;;;;4992819;28;20148;-67
2023/10/06 02:39:28;;;;;;;7.22;3.20;;;20.30;94.60;;;;;;4990594;28;20057;-67
2023/10/06 02:41:57;;;;;;;6.93;3.13;;;20.30;95.50;;;;;;4990028;28;20046;-67
2023/10/06 02:44:29;;;;;;;7.80;2.95;;;20.30;95.40;;;;;;4986312;28;20519;-67
2023/10/06 02:46:55;;;;;;;8.43;3.75;;;20.30;95.50;;;;;;4989806;28;20055;-66
2023/10/06 02:49:35;;;;;;;8.38;3.33;;;20.10;95.50;;;;;;4974574;28;20514;-66
2023/10/06 02:52:15;;;;;;;6.05;2.90;;;20.20;95.50;;;;;;4977841;28;20523;-66
2023/10/06 02:55:31;;;;;;;8.88;3.00;;;20.30;95.40;;;;;;4971599;28;20054;-67
2023/10/06 02:57:39;;;;;;;7.57;3.30;;;;;;;;;;4979339;28;20046;-67
2023/10/06 03:02:56;;;;;;;6.60;3.03;;;;;;;;;;4991468;28;20051;-67
2023/10/06 03:05:38;;;;;;;7.63;3.67;;;20.30;95.50;;;;;;4992378;28;20104;-67
2023/10/06 03:08:11;;;;;;;6.78;3.40;;;20.20;95.50;;;;;;4991829;28;20476;-66
2023/10/06 03:10:43;;;;;;;6.75;2.90;;;20.30;95.40;;;;;;4976564;28;20046;-67
2023/10/06 03:13:16;;;;;;;7.30;3.13;;;20.30;95.50;;;;;;4975364;28;20046;-66
2023/10/06 03:15:45;;;;;;;7.63;3.40;;;;;;;;;;4975482;28;20150;-66
2023/10/06 03:18:15;;;;;;;6.93;3.00;;;20.30;95.50;;;;;;4973674;28;20054;-67
2023/10/06 03:20:48;;;;;;;8.18;2.90;;;20.40;95.50;;;;;;4974233;28;20448;-67
2023/10/06 03:23:31;;;;;;;7.75;3.00;;;20.20;95.50;;;;;;4975908;28;20053;-66
2023/10/06 03:25:57;;;;;;;7.63;3.28;;;20.30;95.50;;;;;;4975399;28;20469;-67
2023/10/06 03:28:36;;;;;;;7.85;3.17;;;;;;;;;;4974202;28;20070;-67
2023/10/06 03:31:09;;;;;;;6.68;2.83;;;20.30;94.80;;;;;;4971696;28;20054;-66
2023/10/06 03:33:35;;;;;;;6.80;3.05;;;20.20;95.50;;;;;;4970197;28;20419;-67
2023/10/06 03:36:01;;;;;;;8.65;3.40;;;;;;;;;;5017125;28;20050;-67
2023/10/06 03:38:27;;;;;;;7.78;3.45;;;;;;;;;;4979652;28;20050;-66
2023/10/06 03:46:08;;;;;;;8.07;3.20;;;;;;;;;;4990756;28;20523;-65
2023/10/06 03:48:35;;;;;;;8.27;3.45;;;20.20;95.50;;;;;;4969422;28;20440;-66
2023/10/06 03:51:01;;;;;;;6.93;3.10;;;20.20;95.50;;;;;;4974925;28;20076;-66
2023/10/06 03:53:29;;;;;;;7.75;3.33;;;;;;;;;;4990958;28;20050;-67
2023/10/06 03:55:57;;;;;;;6.18;3.10;;;;;;;;;;4988743;28;20491;-66
2023/10/06 03:58:29;;;;;;;6.93;3.30;;;;;;;;;;4989276;28;20050;-66
2023/10/06 04:00:55;;;;;;;8.38;3.50;;;20.20;95.40;;;;;;4973244;28;20046;-65
2023/10/06 04:03:21;;;;;;;6.43;3.38;;;20.20;95.50;;;;;;4974812;28;20053;-66
2023/10/06 04:05:50;;;;;;;7.28;3.10;;;20.20;94.20;;;;;;4974248;28;20159;-67
2023/10/06 04:08:23;;;;;;;8.52;3.53;;;20.20;95.50;;;;;;4973126;28;20128;-67
2023/10/06 04:10:57;;;;;;;8.50;3.35;;;20.30;95.50;;;;;;4973235;28;20046;-67
2023/10/06 04:13:23;;;;;;;7.15;3.55;;;20.20;95.40;;;;;;4974340;28;20557;-67
2023/10/06 04:15:49;;;;;;;7.15;3.13;;;20.20;95.50;;;;;;4990820;28;20093;-67
2023/10/06 04:18:22;;;;;;;7.57;3.40;;;20.20;95.40;;;;;;4982380;28;20077;-65
2023/10/06 04:20:49;;;;;;;6.75;3.20;;;20.30;95.00;;;;;;4969196;28;20054;-67
2023/10/06 04:23:17;;;;;;;7.30;3.20;;;20.20;95.40;;;;;;4985399;28;20054;-67
2023/10/06 04:25:43;;;;;;;7.82;3.30;;;20.20;95.40;;;;;;4988869;28;20050;-67
2023/10/06 04:28:14;;;;;;;7.38;3.42;;;20.20;95.50;;;;;;4987813;28;20065;-67
2023/10/06 04:30:42;;;;;;;8.20;3.55;;;20.10;95.50;;;;;;4973624;28;20104;-67
2023/10/06 04:33:10;;;;;;;7.38;3.58;;;20.20;95.50;;;;;;4971912;28;20348;-68
2023/10/06 04:35:40;;;;;;;6.28;2.95;;;20.20;95.00;;;;;;4986286;28;20038;-67
2023/10/06 04:38:12;;;;;;;9.02;3.58;;;20.20;95.50;;;;;;4985436;28;20050;-67
2023/10/06 04:40:40;;;;;;;9.15;4.32;;;;;;;;;;4983116;28;20437;-66
2023/10/06 04:43:07;;;;;;;7.78;3.47;;;20.20;95.50;;;;;;4989049;28;20046;-66
2023/10/06 04:45:32;;;;;;;8.77;3.55;;;20.30;95.50;;;;;;4990665;28;20129;-68
2023/10/06 04:48:00;;;;;;;7.18;3.47;;;;;;;;;;4987224;28;20126;-66
2023/10/06 04:50:30;;;;;;;7.90;3.50;;;20.20;95.50;;;;;;4987276;28;20051;-67
2023/10/06 04:52:56;;;;;;;7.72;3.78;;;;;;;;;;4988296;28;20046;-67
2023/10/06 04:55:22;;;;;;;8.90;3.45;;;;;;;;;;4991578;28;20050;-67
2023/10/06 04:57:49;;;;;;;7.50;3.60;;;;;;;;;;4990688;28;20050;-67
2023/10/06 05:00:19;;;;;;;7.03;3.53;;;20.20;95.50;;;;;;4987272;28;20076;-66
2023/10/06 05:02:50;;;;;;;7.32;3.40;;;20.20;95.50;;;;;;4988048;28;20408;-67
2023/10/06 05:05:19;;;;;;;8.50;3.90;;;20.10;95.50;;;;;;4990994;28;20051;-66
2023/10/06 05:07:46;;;;;;;6.75;3.58;;;20.20;95.50;;;;;;4987552;28;20121;-67
2023/10/06 05:10:12;;;;;;;6.97;3.40;;;20.20;95.50;;;;;;4972973;28;20377;-67
2023/10/06 05:12:38;;;;;;;7.63;3.58;;;20.10;95.50;;;;;;4990072;28;20038;-67
2023/10/06 05:15:08;;;;;;;8.70;3.40;;;20.00;93.60;;;;;;4987894;28;20488;-67
2023/10/06 05:17:34;;;;;;;7.30;3.30;;;20.00;95.50;;;;;;4993169;28;20046;-66
2023/10/06 05:20:01;;;;;;;7.35;3.60;;;20.30;95.60;;;;;;4992960;28;20042;-67
2023/10/06 05:22:27;;;;;;;7.72;3.47;;;20.30;95.60;;;;;;4994482;28;20392;-68
2023/10/06 05:24:53;;;;;;;8.52;3.42;;;;;;;;;;4993456;28;20146;-67
2023/10/06 05:27:19;;;;;;;7.35;3.35;;;20.20;95.50;;;;;;4985229;28;20496;-67
2023/10/06 05:29:46;;;;;;;7.57;3.33;;;20.10;95.50;;;;;;4991634;28;20386;-66
2023/10/06 05:32:14;;;;;;;8.90;3.58;;;20.10;95.50;;;;;;4994042;28;20058;-66
2023/10/06 05:34:40;;;;;;;7.65;3.30;;;;;;;;;;4991593;28;20046;-67
2023/10/06 05:37:12;;;;;;;7.93;3.70;;;;;;;;;;4991330;28;20353;-67
2023/10/06 05:39:40;;;;;;;7.55;3.22;;;20.20;95.50;;;;;;4991286;28;20054;-67
2023/10/06 05:42:11;;;;;;;8.55;3.55;;;;;;;;;;4992525;28;20054;-67
2023/10/06 05:44:38;;;;;;;5.93;3.17;;;;;;;;;;4989110;28;20141;-67
2023/10/06 05:47:08;;;;;;;7.80;3.35;;;20.00;94.40;;;;;;4986842;28;20109;-67
2023/10/06 05:49:35;;;;;;;9.80;3.65;;;20.20;95.60;;;;;;4979501;28;20088;-67
2023/10/06 05:52:03;;;;;;;9.07;3.40;;;;;;;;;;4994343;28;20122;-67
2023/10/06 05:54:30;;;;;;;9.35;3.83;;;20.10;94.60;;;;;;4991367;28;20050;-65
2023/10/06 05:56:56;;;;;;;7.22;3.00;;;;;;;;;;4982389;28;20050;-67
2023/10/06 05:59:22;;;;;;;7.65;3.03;;;;;;;;;;4974264;28;20153;-67
2023/10/06 06:02:09;;;;;;;8.05;3.80;;;;;;;;;;4968723;28;20057;-66
2023/10/06 06:04:38;;;;;;;8.55;3.65;;;;;;;;;;4974788;28;20061;-66
2023/10/06 06:07:08;;;;;;;7.00;3.25;;;;;;;;;;4987679;28;20050;-67
2023/10/06 06:09:34;;;;;;;8.43;3.40;;;;;;;;;;4993827;28;20129;-66
2023/10/06 06:12:00;;;;;;;8.90;3.72;;;;;;;;;;4993083;28;20399;-67
2023/10/06 06:14:26;;;;;;;7.38;3.20;;;20.10;95.60;;;;;;4983451;28;20050;-66
2023/10/06 06:16:52;;;;;;;7.85;3.08;;;;;;;;;;4987132;28;20046;-67
2023/10/06 06:19:20;;;;;;;7.28;3.00;;;;;;;;;;4992172;28;20419;-67
2023/10/06 06:21:46;;;;;;;8.18;3.30;;;;;;;;;;4982943;28;20060;-67
2023/10/06 06:24:20;;;;;;;8.18;3.35;;;;;;;;;;4960000;28;20412;-68
2023/10/06 06:26:46;;;;;;;8.18;3.03;;;;;;;;;;4980870;28;20102;-67
2023/10/06 06:29:12;;;;;;;9.38;3.78;;;;;;;;;;4986573;28;20050;-68
2023/10/06 06:31:38;;;;;;;8.40;2.95;;;;;;;;;;4975885;28;20048;-68
2023/10/06 06:34:06;;;;;;;6.38;3.10;;;20.10;95.50;;;;;;4987045;28;20043;-68
2023/10/06 06:36:32;;;;;;;7.85;3.40;;;;;;;;;;4980813;28;20046;-68
2023/10/06 06:38:59;;;;;;;7.13;3.13;;;;;;;;;;4988966;28;20047;-68
2023/10/06 06:41:25;;;;;;;6.85;3.15;;;20.10;95.70;;;;;;4986691;28;20055;-67
2023/10/06 06:43:58;;;;;;;7.35;3.20;;;20.10;95.60;;;;;;4978507;28;20487;-67
2023/10/06 06:46:29;;;;;;;;;;;20.00;94.70;;;;;;4972896;28;20047;-69
2023/10/06 06:48:56;;;;;;;6.22;3.05;;;18.90;94.30;;;;;;4972627;28;19921;-66
2023/10/06 06:51:27;;;;;;;6.60;3.05;;;20.10;95.70;;;;;;4989372;28;20069;-67
2023/10/06 06:53:57;;;;;;;6.50;2.83;;;20.20;95.70;;;;;;4974925;28;20125;-68
2023/10/06 06:56:28;;;;;;;8.32;3.20;;;20.50;94.60;;;;;;4984948;28;20157;-67
2023/10/06 06:58:59;;;;;;;6.35;3.10;;;20.20;95.70;;;;;;4992218;28;20094;-68
2023/10/06 07:01:25;;;;;;;8.07;3.00;;;20.20;95.70;;;;;;4993106;28;20046;-67
2023/10/06 07:03:51;;;;;;;6.90;2.97;;;20.20;95.70;;;;;;4976449;28;20061;-65
2023/10/06 07:06:17;;;;;;;9.98;2.95;;;20.20;95.70;;;;;;4989699;28;20092;-65
2023/10/06 07:08:49;;;;;;;7.60;3.47;;;20.30;95.80;;;;;;4990177;28;20400;-66
2023/10/06 07:11:15;;;;;;;7.53;3.45;;;20.40;95.70;;;;;;4992856;28;20042;-66
2023/10/06 07:13:42;;;;;;;7.30;3.05;;;20.30;95.70;;;;;;4988139;28;20069;-65
2023/10/06 07:16:09;;;;;;;7.75;3.20;;;20.30;95.80;;;;;;4990430;28;20049;-68
2023/10/06 07:18:39;;;;;;;7.20;2.90;;;20.20;95.70;;;;;;4990086;28;20049;-66
2023/10/06 07:21:09;;;;;;;9.27;3.30;;;20.30;94.00;;;;;;4987728;28;20049;-70
2023/10/06 07:23:37;;;;;;;8.50;2.78;;;20.20;95.80;;;;;;4988647;28;20046;-70
2023/10/06 07:26:10;;;;;;;8.23;3.15;;;20.50;95.90;;;;;;4974073;28;20496;-71
2023/10/06 07:28:39;;;;;;;9.00;4.05;;;20.40;95.70;;;;;;4972838;28;20050;-71
2023/10/06 07:31:12;;;;;;;9.73;4.15;;;20.30;95.50;;;;;;4972787;28;20043;-72
2023/10/06 07:33:43;;;;;;;11.30;4.45;;;20.10;93.60;;;;;;4954536;28;20046;-70
2023/10/06 07:36:17;;;;;;;8.93;4.60;;;20.30;95.40;;;;;;4975056;28;20484;-71
2023/10/06 07:38:44;;;;;;;9.82;4.50;;;20.20;95.40;;;;;;4957827;28;20046;-69
2023/10/06 07:41:26;;;;;;;11.40;4.60;;;20.00;95.40;;;;;;4974354;28;20038;-67
2023/10/06 07:43:53;;;;;;;12.70;4.53;;;;;;;;;;4937608;28;20046;-70
2023/10/06 07:46:19;;;;;;;11.05;4.47;;;;;;;;;;4969511;28;20046;-68
2023/10/06 07:48:45;;;;;;;9.88;4.53;;;20.00;95.60;;;;;;4973009;28;20128;-70
2023/10/06 07:51:13;;;;;;;10.23;4.40;;;20.10;95.60;;;;;;4990759;28;20488;-68
2023/10/06 07:53:43;;;;;;;10.55;4.82;;;20.10;95.50;;;;;;4965713;28;20050;-66
2023/10/06 07:56:09;;;;;;;10.25;4.63;;;20.00;95.40;;;;;;4974866;28;20054;-64
2023/10/06 07:58:38;;;;;;;11.68;4.55;;;20.10;95.60;;;;;;4969238;28;20047;-65
2023/10/06 08:01:08;;;;;;;11.95;4.50;;;;;;;;;;4958488;28;20073;-66
2023/10/06 08:03:37;;;;;;;13.23;5.45;;;20.00;94.40;;;;;;4985176;28;21052;-67
2023/10/06 08:06:05;;;;;;;8.35;4.10;;;20.00;95.60;;;;;;4991812;28;20169;-63
2023/10/06 08:08:33;;;;;;;9.63;3.85;;;20.00;95.70;;;;;;4989012;28;20049;-66
2023/10/06 08:11:02;;;;;;;11.85;4.38;;;19.90;95.50;;;;;;4993050;28;20064;-64
2023/10/06 08:13:33;;;;;;;9.23;3.60;;;19.90;94.60;;;;;;4990680;28;20080;-64
2023/10/06 08:16:00;;;;;;;8.68;3.78;;;20.00;95.70;;;;;;4987310;28;20492;-64
2023/10/06 08:18:29;;;;;;;10.18;3.95;;;20.20;95.70;;;;;;4989977;28;20124;-65
2023/10/06 08:21:00;;;;;;;8.43;4.13;;;20.20;95.80;;;;;;4983535;28;20046;-67
2023/10/06 08:23:31;;;;;;;9.93;3.80;;;20.10;95.80;;;;;;4975759;28;20108;-65
2023/10/06 08:25:58;;;;;;;8.20;3.45;;;20.20;95.90;;;;;;4989743;28;20074;-65
2023/10/06 08:28:31;;;;;;;9.90;3.72;;;20.30;95.90;;;;;;4991032;28;20042;-67
2023/10/06 08:30:58;;;;;;;10.18;3.90;;;20.30;95.90;;;;;;4992502;28;20062;-68
2023/10/06 08:33:27;;;;;;;9.43;3.60;;;;;;;;;;4990375;28;20474;-70
2023/10/06 08:36:01;;;;;;;11.68;3.85;;;20.40;96.20;;;;;;4988292;28;20496;-69
2023/10/06 08:38:26;;;;;;;8.02;3.50;;;20.50;95.90;;;;;;4981177;28;20404;-66
2023/10/06 08:40:58;;;;;;;7.78;3.38;;;20.50;95.80;;;;;;4990450;28;20125;-67
2023/10/06 08:43:27;;;;;;;6.50;3.33;;;20.50;95.40;;;;;;4990534;28;20042;-67
2023/10/06 08:45:55;;;;;;;10.68;3.92;;;20.60;95.70;;;;;;4988366;28;20340;-67
2023/10/06 08:48:25;;;;;;;10.60;3.35;;;20.70;96.10;;;;;;4987956;28;20085;-68
2023/10/06 08:50:53;;;;;;;7.70;3.40;;;20.80;94.60;;;;;;4960479;28;20435;-67
2023/10/06 08:53:19;;;;;;;7.32;3.38;;;20.70;95.60;;;;;;4962211;28;20054;-68
2023/10/06 08:55:45;;;;;;;8.85;3.58;;;20.70;95.60;;;;;;4991525;28;20459;-66
2023/10/06 08:58:14;;;;;;;8.02;3.25;;;;;;;;;;4976158;28;20081;-66
2023/10/06 09:00:43;;;;;;;8.68;3.53;;;;;;;;;;4995262;28;20061;-66
2023/10/06 09:03:11;;;;;;;10.05;4.35;;;20.80;95.50;;;;;;4976279;28;20081;-67
2023/10/06 09:05:46;;;;;;;6.93;3.50;;;20.80;95.50;;;;;;4968881;28;20720;-66
2023/10/06 09:08:15;;;;;;;8.25;3.50;;;20.90;95.40;;;;;;4995824;28;20046;-66
2023/10/06 09:10:42;;;;;;;7.50;3.85;;;20.90;95.40;;;;;;5006829;28;20054;-68
2023/10/06 09:13:11;;;;;;;8.75;3.47;;;20.90;94.20;;;;;;4959771;28;20089;-67
2023/10/06 09:15:37;;;;;;;8.55;3.90;;;21.00;95.30;;;;;;4985401;28;20105;-66
2023/10/06 09:18:19;;;;;;;7.63;3.85;;;21.00;95.30;;;;;;4967732;28;20043;-66
2023/10/06 09:20:48;;;;;;;8.10;3.60;;;20.90;95.20;;;;;;4992371;28;20061;-66
2023/10/06 09:23:30;;;;;;;9.43;3.75;;;21.00;95.20;;;;;;4993592;28;20103;-66
2023/10/06 09:25:57;;;;;;;6.43;3.55;;;21.10;95.30;;;;;;5006932;28;20109;-66
2023/10/06 09:28:23;;;;;;;9.05;3.92;;;;;;;;;;4973269;28;20038;-66
2023/10/06 09:31:02;;;;;;;7.78;3.42;;;21.20;95.30;;;;;;5008790;28;20385;-65
2023/10/06 09:33:28;;;;;;;7.97;3.80;;;;;;;;;;4990624;28;20042;-66
2023/10/06 09:36:22;;;;;;;8.18;4.00;;;21.00;95.10;;;;;;4987637;28;20451;-65
2023/10/06 09:38:48;;;;;;;7.35;3.78;;;21.10;95.20;;;;;;4987210;28;20057;-66
2023/10/06 09:41:33;;;;;;;8.50;4.05;;;21.10;95.20;;;;;;4991144;28;20480;-67
2023/10/06 09:44:08;;;;;;;8.88;4.45;;;21.00;95.10;;;;;;4987010;28;20488;-67
2023/10/06 09:46:34;;;;;;;9.07;4.07;;;21.10;95.10;;;;;;4980844;28;20046;-65
2023/10/06 09:49:05;;;;;;;7.22;3.70;;;21.30;95.10;;;;;;4973263;28;20400;-66
2023/10/06 09:51:32;;;;;;;8.77;4.05;;;21.10;95.30;;;;;;4989461;28;20050;-66
2023/10/06 09:53:58;;;;;;;7.32;4.10;;;21.20;94.20;;;;;;4972600;28;20070;-66
2023/10/06 09:56:24;;;;;;;7.25;3.65;;;;;;;;;;5001086;28;20046;-66
2023/10/06 09:58:54;;;;;;;7.18;3.22;;;;;;;;;;4976254;28;20046;-67
2023/10/06 10:01:24;;;;;;;8.00;3.38;;;21.20;95.10;;;;;;4988845;28;20054;-67
2023/10/06 10:03:54;;;;;;;7.70;3.47;;;21.50;94.00;;;;;;4973612;28;20057;-65
2023/10/06 10:06:21;;;;;;;7.30;3.58;;;;;;;;;;4964995;28;20055;-66
2023/10/06 10:08:47;;;;;;;8.35;3.50;;;21.10;94.90;;;;;;4985085;28;20054;-66
2023/10/06 10:11:15;;;;;;;8.80;3.65;;;21.30;94.90;;;;;;5006804;28;20049;-66
2023/10/06 10:14:09;;;;;;;7.65;3.60;;;21.20;94.90;;;;;;4977420;28;20062;-68
2023/10/06 10:16:37;;;;;;;7.55;3.22;;;21.30;94.90;;;;;;4988646;28;20074;-65
2023/10/06 10:19:07;;;;;;;10.20;3.38;;;21.20;93.80;;;;;;4990383;28;20038;-67
2023/10/06 10:21:34;;;;;;;7.25;3.20;;;;;;;;;;4988665;28;20388;-67
2023/10/06 10:24:09;;;;;;;7.55;3.55;;;21.40;94.80;;;;;;4970773;28;20062;-67
2023/10/06 10:26:37;;;;;;;6.97;3.10;;;21.40;93.70;;;;;;4959604;28;20052;-66
2023/10/06 10:29:12;;;;;;;9.15;4.00;;;21.30;94.80;;;;;;4990919;28;20055;-67
2023/10/06 10:31:46;;;;;;;8.77;3.40;;;21.30;94.90;;;;;;4993946;28;20050;-70
2023/10/06 10:34:20;;;;;;;6.90;3.42;;;21.20;93.30;;;;;;4991454;28;20399;-65
2023/10/06 10:36:48;;;;;;;7.13;3.53;;;21.20;94.80;;;;;;4990034;28;20054;-69
2023/10/06 10:39:17;;;;;;;9.73;3.30;;;21.50;94.90;;;;;;4985267;28;20416;-66
2023/10/06 10:41:44;;;;;;;8.63;3.58;;;21.40;94.80;;;;;;4957893;28;20047;-66
2023/10/06 10:44:12;;;;;;;7.75;3.53;;;21.40;94.90;;;;;;4972814;28;20481;-66
2023/10/06 10:46:42;;;;;;;8.68;3.45;;;21.50;94.30;;;;;;4988847;28;20118;-66
2023/10/06 10:49:13;;;;;;;7.18;3.38;;;21.30;94.80;;;;;;4989882;28;20061;-67
2023/10/06 10:52:09;;;;;;;7.32;3.65;;;21.60;95.00;;;;;;4991046;28;20080;-66
2023/10/06 10:54:39;;;;;;;8.40;3.33;;;21.70;94.90;;;;;;4971162;28;20090;-68
2023/10/06 10:57:24;;;;;;;9.30;3.50;;;21.50;94.80;;;;;;5019642;28;20054;-67
2023/10/06 11:02:44;;;;;;;8.27;3.67;;;21.40;93.10;;;;;;4992974;28;20141;-69
2023/10/06 11:05:10;;;;;;;7.85;3.40;;;21.60;94.90;;;;;;4973197;28;20050;-68
2023/10/06 11:07:36;;;;;;;6.53;2.88;;;21.70;95.20;;;;;;4984041;28;20096;-68
2023/10/06 11:10:02;;;;;;;8.95;3.70;;;21.40;95.10;;;;;;4988887;28;20055;-68
2023/10/06 11:12:30;;;;;;;9.18;3.38;;;21.90;94.10;;;;;;4973083;28;20054;-67
2023/10/06 11:15:13;;;;;;;6.68;3.30;;;21.60;95.00;;;;;;4970265;28;20408;-66
2023/10/06 11:17:41;;;;;;;7.00;3.13;;;21.50;95.30;;;;;;4993725;28;20146;-67
2023/10/06 11:20:21;;;;;;;9.45;3.33;;;21.60;95.00;;;;;;4991301;28;20681;-70
2023/10/06 11:22:52;;;;;;;10.45;3.58;;;21.60;94.90;;;;;;4992124;28;20106;-70
2023/10/06 11:25:18;;;;;;;6.70;3.22;;;21.60;95.00;;;;;;4991799;28;20050;-68
2023/10/06 11:27:55;;;;;;;7.68;3.40;;;21.60;95.00;;;;;;4981388;28;20167;-69
2023/10/06 11:30:23;;;;;;;8.27;3.50;;;21.70;94.00;;;;;;4964577;28;20415;-69
2023/10/06 11:32:50;;;;;;;8.85;3.88;;;21.70;94.90;;;;;;4992225;28;20089;-71
2023/10/06 11:35:17;;;;;;;8.02;3.65;;;21.80;93.80;;;;;;5002028;28;20057;-67
2023/10/06 11:37:43;;;;;;;8.32;3.30;;;21.80;95.30;;;;;;5019761;28;20042;-66
2023/10/06 11:40:09;;;;;;;11.68;3.83;;;21.90;94.90;;;;;;4990286;28;20123;-65
2023/10/06 11:42:38;;;;;;;14.38;4.18;;;22.00;95.00;;;;;;4984044;28;20038;-66
2023/10/06 11:45:11;;;;;;;12.93;3.95;;;22.00;94.90;;;;;;4974132;28;20047;-66
2023/10/06 11:47:40;;;;;;;12.90;4.00;;;22.10;95.00;;;;;;4979469;28;20075;-66
2023/10/06 11:50:08;;;;;;;11.88;3.60;;;22.00;95.10;;;;;;4989969;28;20133;-65
2023/10/06 11:52:34;;;;;;;11.48;4.00;;;22.00;95.00;;;;;;5024127;28;20050;-65
2023/10/06 11:55:03;;;;;;;9.77;3.50;;;21.90;95.30;;;;;;4988190;28;20050;-65
2023/10/06 11:57:46;;;;;;;14.38;3.70;;;22.10;94.00;;;;;;4986738;28;20049;-65
2023/10/06 12:00:18;;;;;;;11.95;3.83;;;22.00;95.30;;;;;;4990103;28;20065;-64
2023/10/06 12:02:50;;;;;;;15.48;4.03;;;22.20;95.20;;;;;;4974699;28;20054;-65
2023/10/06 12:05:22;;;;;;;10.52;3.80;;;22.10;93.50;;;;;;4987110;28;20045;-65
2023/10/06 12:07:51;;;;;;;9.15;3.75;;;21.90;93.40;;;;;;4960453;28;20116;-65
2023/10/06 12:10:18;;;;;;;14.40;4.20;;;22.10;95.00;;;;;;4964468;28;20050;-65
2023/10/06 12:12:46;;;;;;;12.00;3.75;;;22.20;95.00;;;;;;4992076;28;20054;-66
2023/10/06 12:15:15;;;;;;;8.43;3.33;;;22.00;93.80;;;;;;5022011;28;20096;-65
2023/10/06 12:17:41;;;;;;;9.52;3.47;;;22.10;95.00;;;;;;4987427;28;20070;-65
2023/10/06 12:20:13;;;;;;;8.48;3.35;;;22.10;94.10;;;;;;4985960;28;20051;-64
2023/10/06 12:22:45;;;;;;;9.02;3.53;;;22.00;95.00;;;;;;4974762;28;20046;-65
2023/10/06 12:25:11;;;;;;;9.63;3.30;;;22.10;95.10;;;;;;4985222;28;20135;-65
2023/10/06 12:27:43;;;;;;;9.10;3.67;;;22.40;94.10;;;;;;4997653;28;20301;-65
2023/10/06 12:30:13;;;;;;;11.80;3.63;;;22.40;94.90;;;;;;4993611;28;20506;-66
2023/10/06 12:32:39;;;;;;;10.05;3.50;;;22.20;94.90;;;;;;4990620;28;20046;-65
2023/10/06 12:35:05;;;;;;;10.25;3.33;;;22.30;95.00;;;;;;4963802;28;20173;-68
2023/10/06 12:37:40;;;;;;;11.00;3.40;;;22.10;93.80;;;;;;4996452;28;20112;-67
2023/10/06 12:40:09;;;;;;;8.50;3.38;;;22.00;95.00;;;;;;4989051;28;20046;-66
2023/10/06 12:42:38;;;;;;;11.10;3.08;;;22.40;95.60;;;;;;4975986;28;20059;-66
2023/10/06 12:45:17;;;;;;;9.38;3.30;;;22.10;95.10;;;;;;4978420;28;20054;-66
2023/10/06 12:47:47;;;;;;;9.77;3.30;;;22.00;95.10;;;;;;4990595;28;20043;-66
2023/10/06 12:50:16;;;;;;;7.97;3.30;;;22.20;95.10;;;;;;4991727;28;20053;-68
2023/10/06 12:52:43;;;;;;;8.63;3.22;;;22.10;95.00;;;;;;4990915;28;20054;-68
2023/10/06 12:55:12;;;;;;;10.15;3.78;;;22.20;94.90;;;;;;4982189;28;20515;-67
2023/10/06 12:57:40;;;;;;;10.35;3.75;;;22.20;93.50;;;;;;4988081;28;20122;-67
2023/10/06 13:00:07;;;;;;;13.02;3.85;;;22.30;94.00;;;;;;4992535;28;20145;-67
2023/10/06 13:02:34;;;;;;;9.88;3.45;;;22.50;93.90;;;;;;4976599;28;20078;-67
2023/10/06 13:05:08;;;;;;;10.40;3.53;;;22.30;93.90;;;;;;5027776;28;20065;-66
2023/10/06 13:07:35;;;;;;;8.63;3.22;;;22.40;94.00;;;;;;5027607;28;20042;-66
2023/10/06 13:10:06;;;;;;;10.85;3.65;;;22.20;93.80;;;;;;4993876;28;20050;-68
2023/10/06 13:12:33;;;;;;;9.68;3.35;;;22.30;93.90;;;;;;4994088;28;20053;-68
2023/10/06 13:15:02;;;;;;;12.18;4.25;;;22.40;94.00;;;;;;5007980;28;20137;-66
2023/10/06 13:17:28;;;;;;;9.95;3.75;;;22.50;95.40;;;;;;4975731;28;20448;-66
2023/10/06 13:19:55;;;;;;;10.30;3.30;;;22.30;93.90;;;;;;4994874;28;20046;-68
2023/10/06 13:22:21;;;;;;;10.93;3.28;;;22.00;95.00;;;;;;4995205;28;20585;-67
2023/10/06 13:24:47;;;;;;;12.00;3.58;;;22.00;93.80;;;;;;4994820;28;20081;-68
2023/10/06 13:27:12;;;;;;;9.48;3.30;;;22.20;93.90;;;;;;4981333;28;20083;-66
2023/10/06 13:29:38;;;;;;;9.95;3.40;;;22.10;93.90;;;;;;4993658;28;20049;-67
2023/10/06 13:32:07;;;;;;;10.45;3.53;;;22.10;94.00;;;;;;5027468;28;20058;-67
2023/10/06 13:34:33;;;;;;;8.93;3.47;;;21.80;93.90;;;;;;4995023;28;20046;-67
2023/10/06 13:36:58;;;;;;;7.72;3.38;;;22.10;94.10;;;;;;4995505;28;20038;-66